Hurontown, MI

9:11 PM EST op 26 februari 2017 (GMT -0500)
Clark Street | | Change Station

Hoogte 643 ft 47.12 °N, 88.55 °W | Updated 21 seconds ago

Helder
Helder
21.2 °F
Voelt als 13 °F
N
6.0
Wind Variabel Wind van NNW

Vandaag
Hoog -- | Laag -- °F
--% Kans op neerslag
Gisteren
Hoog -- | Laag -- °F
Precip. -- inches
Druk 29.87 inches
Zicht 7.0 mijlen
Wolken Helder
Gevoelstemperatuur 13 °F
Dauwpunt 16 °F
Vochtigheid 83%
Neerslag 0.02 inches
Dikte sneeuw Niet beschikbaar.
7:39 AM 6:35 PM
Nieuwe maan, 0% visible
METAR KCMX 270153Z AUTO 30019KT 7SM CLR M07/M14 A2981 RMK AO2 PK WND 30030/0106 UPE45 SLP113 P0000 T10671139
Druk 29.87 inches
Zicht 7.0 mijlen
Wolken Helder
Gevoelstemperatuur 13 °F
Dauwpunt 16 °F
Vochtigheid 83%
Neerslag 0.02 inches
Dikte sneeuw Niet beschikbaar.
7:39 AM 6:35 PM
Nieuwe maan, 0% visible
METAR KCMX 270153Z AUTO 30019KT 7SM CLR M07/M14 A2981 RMK AO2 PK WND 30030/0106 UPE45 SLP113 P0000 T10671139

Get Your Daily Forecast Email!

Thanks for signing up!

Be on the lookout for a verification email in your inbox.

You'll start receiving the daily forecast at 8 AM.

×

10-Day Weather Forecast

Almanac

Astronomie

Feb. 26, 2017 Opkomst Ondergang
Werkelijke tijd
Burgerlijke schemering
Nautische schemering
Astronomische schemering
Maan
Golflengte van het zichtbare licht
Daglengte
Tomorrow will be .
, % of the Moon is Illuminated

Extremen vandaag

State Highs State Lows

Community

WunderPhotos

Upload Photos

1,962,540 foto’s ge-upload!

WunderBlog® & News

Nearby

Luchtkwaliteit

  Luchtkwaliteit LK-index Verontreinigende stof
Not available.

Dikte sneeuw

Station Depth Geometrische hoogte

Aardbevingen

Stad Distance Mag. Time & Date
Minimum magnitude displayed is 2.5.

Watertemperatuur langs de kust

Plaats Temperatuur

Stations

Nabije weerstations

Locatie station Temp. Gevoelstemperatuur Dauwpunt Vochtigheid Wind Precip. Hoogte Geactualiseerd Type
                   

Watches & Warnings

There are currently no watches in effect.